Time;durP1;ratioP1;P1;durP2;ratioP2;P2;SDS_P1;SDS_P2;PMS_P1;PMS_P2;Temp;Humidity;BMP_temperature;BMP_pressure;BME280_temperature;BME280_humidity;BME280_pressure;Samples;Min_cycle;Max_cycle;Signal;HPM_P1;HPM_P2
2023/07/27 00:02:17;;;;;;;11.27;6.47;;;14.60;99.90;;;;;;5010066;28;20038;-64
2023/07/27 00:04:42;;;;;;;10.02;6.85;;;14.60;99.90;;;;;;5010283;28;20046;-64
2023/07/27 00:07:08;;;;;;;11.18;6.82;;;14.60;99.90;;;;;;5012999;28;20100;-64
2023/07/27 00:09:33;;;;;;;8.88;5.85;;;14.60;99.90;;;;;;5009457;28;20061;-64
2023/07/27 00:11:59;;;;;;;10.45;6.40;;;14.60;99.90;;;;;;5013126;28;20064;-64
2023/07/27 00:14:24;;;;;;;10.55;5.90;;;14.60;99.90;;;;;;5007526;28;20498;-64
2023/07/27 00:16:50;;;;;;;9.80;6.00;;;14.60;99.90;;;;;;5010985;28;20042;-64
2023/07/27 00:19:16;;;;;;;9.15;6.13;;;14.70;99.90;;;;;;5012054;28;20042;-64
2023/07/27 00:21:42;;;;;;;9.13;6.30;;;14.70;99.90;;;;;;5012646;28;20408;-64
2023/07/27 00:24:07;;;;;;;9.52;6.22;;;14.80;99.90;;;;;;5015735;28;20454;-64
2023/07/27 00:26:33;;;;;;;10.85;6.32;;;14.80;99.90;;;;;;5010938;28;20037;-64
2023/07/27 00:28:59;;;;;;;9.63;6.18;;;14.80;99.90;;;;;;5013931;28;20644;-64
2023/07/27 00:31:24;;;;;;;8.75;5.97;;;14.80;99.90;;;;;;5013724;28;20095;-64
2023/07/27 00:33:50;;;;;;;8.95;6.07;;;14.80;99.90;;;;;;5004419;28;20120;-64
2023/07/27 00:36:15;;;;;;;10.02;6.15;;;14.80;99.90;;;;;;5013002;28;20037;-64
2023/07/27 00:38:41;;;;;;;8.82;5.57;;;14.80;99.90;;;;;;5005853;28;20085;-64
2023/07/27 00:41:07;;;;;;;9.15;5.80;;;14.80;99.90;;;;;;5012702;28;20054;-64
2023/07/27 00:43:33;;;;;;;10.27;5.55;;;14.80;99.90;;;;;;5007706;28;20200;-64
2023/07/27 00:45:59;;;;;;;9.80;5.43;;;14.80;99.90;;;;;;5013687;28;20070;-64
2023/07/27 00:48:25;;;;;;;7.72;5.55;;;14.80;99.90;;;;;;5011167;28;20041;-64
2023/07/27 00:50:51;;;;;;;8.02;5.43;;;14.80;99.90;;;;;;5010599;28;20038;-64
2023/07/27 00:53:17;;;;;;;9.52;5.50;;;14.80;99.90;;;;;;5020035;28;20038;-64
2023/07/27 00:55:43;;;;;;;9.88;5.65;;;14.90;99.90;;;;;;5012762;28;20042;-64
2023/07/27 00:58:11;;;;;;;7.38;4.88;;;14.80;99.90;;;;;;5010043;28;20045;-64
2023/07/27 01:00:38;;;;;;;7.63;5.55;;;14.80;99.90;;;;;;5007573;28;20075;-64
2023/07/27 01:03:04;;;;;;;9.25;5.65;;;14.80;99.90;;;;;;5010023;28;20042;-64
2023/07/27 01:05:30;;;;;;;7.50;4.72;;;14.80;99.90;;;;;;5012820;28;20120;-64
2023/07/27 01:07:56;;;;;;;9.35;5.38;;;14.80;99.90;;;;;;5011147;28;20086;-64
2023/07/27 01:10:32;;;;;;;6.25;4.93;;;14.80;99.90;;;;;;5012719;28;20073;-64
2023/07/27 01:13:06;;;;;;;7.68;5.03;;;14.80;99.90;;;;;;5010925;28;20077;-64
2023/07/27 01:15:38;;;;;;;7.90;4.82;;;14.80;99.90;;;;;;5012077;28;20088;-64
2023/07/27 01:18:13;;;;;;;6.72;4.75;;;14.80;99.90;;;;;;5011855;28;20045;-64
2023/07/27 01:21:00;;;;;;;8.63;4.90;;;14.80;99.90;;;;;;5011522;28;20130;-64
2023/07/27 01:23:47;;;;;;;8.02;4.82;;;14.90;99.90;;;;;;5006218;28;20508;-64
2023/07/27 01:26:55;;;;;;;7.53;5.28;;;14.80;99.90;;;;;;5009853;28;20041;-64
2023/07/27 01:29:52;;;;;;;9.25;5.35;;;14.80;99.90;;;;;;5001686;28;20150;-64
2023/07/27 01:32:20;;;;;;;9.40;4.97;;;14.80;99.90;;;;;;5003331;28;20129;-64
2023/07/27 01:34:54;;;;;;;10.25;5.32;;;14.70;99.90;;;;;;5010341;28;20077;-64
2023/07/27 01:37:21;;;;;;;7.72;4.93;;;14.80;99.90;;;;;;5011554;28;20084;-65
2023/07/27 01:39:51;;;;;;;10.35;5.35;;;14.80;99.90;;;;;;5015157;28;20048;-65
2023/07/27 01:42:17;;;;;;;10.00;4.82;;;14.70;99.90;;;;;;5004511;28;20037;-64
2023/07/27 01:44:44;;;;;;;6.57;4.78;;;14.70;99.90;;;;;;5002704;28;20129;-65
2023/07/27 01:47:10;;;;;;;8.73;5.30;;;14.70;99.90;;;;;;5010481;28;20068;-64
2023/07/27 01:49:39;;;;;;;8.05;4.90;;;14.80;99.90;;;;;;5024187;28;20038;-64
2023/07/27 01:52:06;;;;;;;8.70;5.10;;;14.80;99.90;;;;;;5002112;28;20065;-65
2023/07/27 01:54:33;;;;;;;9.38;5.15;;;14.70;99.90;;;;;;5010412;28;20037;-64
2023/07/27 01:56:59;;;;;;;7.43;4.90;;;14.70;99.90;;;;;;5011021;28;20029;-65
2023/07/27 01:59:26;;;;;;;8.75;5.57;;;14.70;99.90;;;;;;5010342;28;20523;-65
2023/07/27 02:01:52;;;;;;;8.25;5.40;;;14.70;99.90;;;;;;5007193;28;20408;-64
2023/07/27 02:04:18;;;;;;;10.43;5.90;;;14.60;99.90;;;;;;5003381;28;20061;-64
2023/07/27 02:06:49;;;;;;;7.25;5.25;;;14.70;99.90;;;;;;5009869;28;20033;-64
2023/07/27 02:09:14;;;;;;;8.48;5.30;;;14.60;99.90;;;;;;5010064;28;20056;-64
2023/07/27 02:11:43;;;;;;;9.30;6.38;;;14.60;99.90;;;;;;5003729;28;20124;-64
2023/07/27 02:14:21;;;;;;;8.82;5.57;;;14.70;99.90;;;;;;5011262;28;20149;-64
2023/07/27 02:16:56;;;;;;;9.52;5.82;;;14.60;99.90;;;;;;5003279;28;20539;-64
2023/07/27 02:19:29;;;;;;;9.00;5.80;;;14.50;99.90;;;;;;4992793;28;20429;-64
2023/07/27 02:21:56;;;;;;;10.68;5.53;;;14.60;99.90;;;;;;5011013;28;20053;-64
2023/07/27 02:24:24;;;;;;;7.47;5.63;;;14.60;99.90;;;;;;5005562;28;20045;-64
2023/07/27 02:26:50;;;;;;;7.88;5.35;;;14.50;99.90;;;;;;5008850;28;20033;-64
2023/07/27 02:29:16;;;;;;;11.93;6.20;;;14.50;99.90;;;;;;5011569;28;20085;-64
2023/07/27 02:31:42;;;;;;;9.63;6.00;;;14.50;99.90;;;;;;5002980;28;20034;-64
2023/07/27 02:34:07;;;;;;;10.35;6.25;;;14.60;99.90;;;;;;5008246;28;21160;-64
2023/07/27 02:36:33;;;;;;;10.75;6.28;;;14.60;99.90;;;;;;5004579;28;20046;-64
2023/07/27 02:38:59;;;;;;;10.95;6.32;;;14.60;99.90;;;;;;5011300;28;20045;-64
2023/07/27 02:41:24;;;;;;;8.82;6.05;;;14.60;99.90;;;;;;5013683;28;20037;-64
2023/07/27 02:43:50;;;;;;;8.73;5.68;;;14.60;99.90;;;;;;5010476;28;20041;-63
2023/07/27 02:46:15;;;;;;;10.65;6.35;;;14.60;99.90;;;;;;5010311;28;20125;-64
2023/07/27 02:48:41;;;;;;;9.25;6.05;;;14.70;99.90;;;;;;5010751;28;20065;-64
2023/07/27 02:51:07;;;;;;;12.20;6.75;;;14.70;99.90;;;;;;5008508;28;20188;-64
2023/07/27 02:53:32;;;;;;;10.30;6.38;;;14.70;99.90;;;;;;5009686;28;20140;-63
2023/07/27 02:55:59;;;;;;;9.70;5.95;;;14.70;99.90;;;;;;5008764;28;20032;-64
2023/07/27 02:58:26;;;;;;;11.15;6.82;;;14.70;99.90;;;;;;5004655;28;20052;-64
2023/07/27 03:00:59;;;;;;;9.80;6.07;;;14.70;99.90;;;;;;5011705;28;20056;-64
2023/07/27 03:03:24;;;;;;;9.95;6.03;;;14.70;99.90;;;;;;5011608;28;20084;-64
2023/07/27 03:06:01;;;;;;;10.25;6.10;;;14.70;99.90;;;;;;5011277;28;20041;-64
2023/07/27 03:08:27;;;;;;;9.30;6.07;;;14.70;99.90;;;;;;5008205;28;20412;-64
2023/07/27 03:10:54;;;;;;;9.90;5.90;;;14.70;99.90;;;;;;5011156;28;20595;-64
2023/07/27 03:13:19;;;;;;;9.90;6.57;;;14.70;99.90;;;;;;5010705;28;20045;-64
2023/07/27 03:15:45;;;;;;;13.77;6.57;;;14.80;99.90;;;;;;5011215;28;20038;-64
2023/07/27 03:18:11;;;;;;;11.00;6.75;;;14.80;99.90;;;;;;5009078;28;20067;-64
2023/07/27 03:20:43;;;;;;;12.63;6.82;;;14.80;99.90;;;;;;5010691;28;20088;-64
2023/07/27 03:23:09;;;;;;;12.32;6.80;;;14.90;99.90;;;;;;5010886;28;20492;-64
2023/07/27 03:25:36;;;;;;;10.60;6.95;;;14.80;99.90;;;;;;5011139;28;20033;-64
2023/07/27 03:28:07;;;;;;;9.68;6.28;;;14.70;99.90;;;;;;5008606;28;20052;-64
2023/07/27 03:30:35;;;;;;;10.43;6.78;;;14.70;99.90;;;;;;5022876;28;20042;-64
2023/07/27 03:33:01;;;;;;;10.93;6.93;;;14.70;99.90;;;;;;5009750;28;20442;-64
2023/07/27 03:35:27;;;;;;;10.60;6.93;;;14.70;99.90;;;;;;5010376;28;20161;-64
2023/07/27 03:37:52;;;;;;;10.93;6.97;;;14.70;99.90;;;;;;5011670;28;20045;-64
2023/07/27 03:40:19;;;;;;;10.93;6.80;;;14.60;99.90;;;;;;5010077;28;20112;-64
2023/07/27 03:42:45;;;;;;;10.82;7.22;;;14.60;99.90;;;;;;5014727;28;20038;-63
2023/07/27 03:45:13;;;;;;;12.00;6.93;;;14.60;99.90;;;;;;5014610;28;20057;-63
2023/07/27 03:47:38;;;;;;;13.20;6.93;;;14.60;99.90;;;;;;5014175;28;20077;-64
2023/07/27 03:50:04;;;;;;;11.57;7.18;;;14.60;99.90;;;;;;5010600;28;20104;-64
2023/07/27 03:52:30;;;;;;;11.43;7.45;;;14.60;99.90;;;;;;5010298;28;20033;-64
2023/07/27 03:54:55;;;;;;;12.35;7.32;;;14.60;99.90;;;;;;5005705;28;20030;-64
2023/07/27 03:57:21;;;;;;;12.32;7.22;;;14.60;99.90;;;;;;5004695;28;20489;-64
2023/07/27 03:59:47;;;;;;;12.05;7.72;;;14.60;99.90;;;;;;5010094;28;20038;-65
2023/07/27 04:02:12;;;;;;;9.93;7.10;;;14.50;99.90;;;;;;5010934;28;20129;-64
2023/07/27 04:04:38;;;;;;;12.75;6.88;;;14.60;99.90;;;;;;5012454;28;20049;-64
2023/07/27 04:07:04;;;;;;;13.05;7.45;;;14.60;99.90;;;;;;5009973;28;20034;-64
2023/07/27 04:09:29;;;;;;;12.20;7.70;;;14.60;99.90;;;;;;5014341;28;20113;-64
2023/07/27 04:11:55;;;;;;;11.85;7.50;;;14.40;99.90;;;;;;5007164;28;20048;-64
2023/07/27 04:14:20;;;;;;;12.63;7.70;;;14.60;99.90;;;;;;5009058;28;20041;-64
2023/07/27 04:16:46;;;;;;;12.60;7.32;;;14.50;99.90;;;;;;5010127;28;20056;-64
2023/07/27 04:19:11;;;;;;;16.70;7.45;;;14.60;99.90;;;;;;5011240;28;20042;-65
2023/07/27 04:21:37;;;;;;;12.02;7.20;;;14.50;99.90;;;;;;5013463;28;20400;-64
2023/07/27 04:24:03;;;;;;;12.50;7.68;;;14.50;99.90;;;;;;5013876;28;20561;-64
2023/07/27 04:26:29;;;;;;;11.15;7.15;;;14.50;99.90;;;;;;5012930;28;20049;-64
2023/07/27 04:28:54;;;;;;;11.35;7.05;;;14.50;99.90;;;;;;5012551;28;20514;-64
2023/07/27 04:31:20;;;;;;;12.27;7.30;;;14.50;99.90;;;;;;5013249;28;20034;-64
2023/07/27 04:33:46;;;;;;;11.95;7.50;;;14.50;99.90;;;;;;5013504;28;20104;-64
2023/07/27 04:36:11;;;;;;;11.07;7.47;;;14.60;99.90;;;;;;5012067;28;20502;-64
2023/07/27 04:38:37;;;;;;;10.82;7.47;;;14.50;99.90;;;;;;5013103;28;20081;-64
2023/07/27 04:41:03;;;;;;;11.57;7.22;;;14.60;99.90;;;;;;5013165;28;20049;-64
2023/07/27 04:43:28;;;;;;;10.85;7.05;;;14.40;99.90;;;;;;5013593;28;20049;-64
2023/07/27 04:45:54;;;;;;;12.98;7.93;;;14.50;99.90;;;;;;5013323;28;20042;-64
2023/07/27 04:48:19;;;;;;;11.95;7.28;;;14.50;99.90;;;;;;5010942;28;20042;-64
2023/07/27 04:50:47;;;;;;;12.45;6.75;;;14.50;99.90;;;;;;5011933;28;20038;-64
2023/07/27 04:53:12;;;;;;;11.88;7.40;;;14.50;99.90;;;;;;5009098;28;20045;-64
2023/07/27 04:55:38;;;;;;;9.27;6.57;;;14.50;99.90;;;;;;5007911;28;20414;-64
2023/07/27 04:58:04;;;;;;;8.38;6.05;;;14.50;99.90;;;;;;5010077;28;20045;-64
2023/07/27 05:00:30;;;;;;;11.23;6.72;;;14.60;99.90;;;;;;5013133;28;20038;-63
2023/07/27 05:02:57;;;;;;;10.85;7.25;;;14.60;99.90;;;;;;5012601;28;20042;-64
2023/07/27 05:05:23;;;;;;;10.45;7.18;;;14.60;99.90;;;;;;5007541;28;20037;-64
2023/07/27 05:07:48;;;;;;;9.60;7.05;;;14.60;99.90;;;;;;5008840;28;20042;-63
2023/07/27 05:10:14;;;;;;;15.18;7.97;;;14.60;99.90;;;;;;5012141;28;20037;-64
2023/07/27 05:12:40;;;;;;;13.60;8.13;;;14.60;99.90;;;;;;5011505;28;20065;-64
2023/07/27 05:15:06;;;;;;;13.90;7.75;;;14.60;99.90;;;;;;5008508;28;20038;-63
2023/07/27 05:17:32;;;;;;;14.43;7.85;;;14.50;99.90;;;;;;5006007;28;20041;-63
2023/07/27 05:19:58;;;;;;;12.90;8.18;;;14.60;99.90;;;;;;5012205;28;20045;-64
2023/07/27 05:22:23;;;;;;;10.63;7.40;;;14.60;99.90;;;;;;5012672;28;20049;-64
2023/07/27 05:24:49;;;;;;;10.80;7.05;;;14.60;99.90;;;;;;5011246;28;20039;-64
2023/07/27 05:27:15;;;;;;;10.48;7.53;;;14.60;99.90;;;;;;5003944;28;20028;-64
2023/07/27 05:29:41;;;;;;;11.15;7.07;;;14.50;99.90;;;;;;5011990;28;20084;-64
2023/07/27 05:32:08;;;;;;;11.95;6.43;;;14.60;99.90;;;;;;5040285;22;20057;-68
2023/07/27 05:34:34;;;;;;;11.05;6.80;;;14.60;99.90;;;;;;5028665;28;20124;-68
2023/07/27 05:37:00;;;;;;;11.27;7.22;;;14.60;99.90;;;;;;5028115;28;20390;-68
2023/07/27 05:39:28;;;;;;;12.13;7.22;;;14.60;99.90;;;;;;5020011;28;20041;-68
2023/07/27 05:41:53;;;;;;;13.30;7.38;;;14.60;99.90;;;;;;5020100;28;20124;-68
2023/07/27 05:44:19;;;;;;;11.68;7.35;;;14.60;99.90;;;;;;5019147;28;20117;-68
2023/07/27 05:46:44;;;;;;;11.32;7.80;;;14.50;99.90;;;;;;5028004;28;20487;-68
2023/07/27 05:49:10;;;;;;;12.73;7.55;;;14.60;99.90;;;;;;5013630;28;20432;-68
2023/07/27 05:51:35;;;;;;;11.70;7.80;;;14.60;99.90;;;;;;4996163;28;20097;-68
2023/07/27 05:54:02;;;;;;;13.32;7.95;;;14.60;99.90;;;;;;5008823;28;20037;-68
2023/07/27 05:56:27;;;;;;;13.98;8.68;;;14.60;99.90;;;;;;5012045;28;20492;-68
2023/07/27 05:58:53;;;;;;;14.43;8.50;;;14.60;99.90;;;;;;5012125;28;20038;-68
2023/07/27 06:01:18;;;;;;;15.73;9.65;;;14.60;99.90;;;;;;5022628;28;20041;-68
2023/07/27 06:03:44;;;;;;;15.10;9.60;;;14.70;99.90;;;;;;5015924;28;20038;-68
2023/07/27 06:06:10;;;;;;;16.77;10.27;;;14.70;99.90;;;;;;5010423;28;20431;-68
2023/07/27 06:08:35;;;;;;;15.50;9.77;;;14.70;99.90;;;;;;5009163;28;20053;-70
2023/07/27 06:11:08;;;;;;;16.42;10.32;;;14.70;99.90;;;;;;5010676;28;20040;-69
2023/07/27 06:13:33;;;;;;;20.02;11.05;;;14.70;99.90;;;;;;5009434;28;20047;-68
2023/07/27 06:15:59;;;;;;;16.75;10.52;;;14.70;99.90;;;;;;5008209;28;20136;-68
2023/07/27 06:18:26;;;;;;;20.25;11.00;;;14.70;99.90;;;;;;5006535;28;20053;-68
2023/07/27 06:20:52;;;;;;;17.95;10.18;;;14.80;99.90;;;;;;5010244;28;20368;-68
2023/07/27 06:23:18;;;;;;;14.13;9.90;;;14.80;99.90;;;;;;5009677;28;20479;-68
2023/07/27 06:25:44;;;;;;;15.95;10.63;;;14.80;99.90;;;;;;5010001;28;20049;-68
2023/07/27 06:28:10;;;;;;;17.80;10.52;;;14.80;99.90;;;;;;5010916;28;20053;-69
2023/07/27 06:30:37;;;;;;;18.35;11.10;;;14.80;99.90;;;;;;5010617;28;20052;-69
2023/07/27 06:33:03;;;;;;;18.23;10.65;;;14.80;99.90;;;;;;5010554;28;20038;-69
2023/07/27 06:35:29;;;;;;;16.02;10.77;;;14.80;99.90;;;;;;5009827;28;20041;-70
2023/07/27 06:37:54;;;;;;;18.17;11.82;;;14.80;99.90;;;;;;5010784;28;20056;-69
2023/07/27 06:40:20;;;;;;;17.63;11.50;;;14.80;99.90;;;;;;5013678;28;20030;-69
2023/07/27 06:42:46;;;;;;;18.33;11.52;;;14.90;99.90;;;;;;5012793;28;20129;-69
2023/07/27 06:45:11;;;;;;;18.25;10.88;;;14.90;99.90;;;;;;5017331;28;20177;-69
2023/07/27 06:47:37;;;;;;;18.23;11.10;;;14.90;99.90;;;;;;5010810;28;20038;-69
2023/07/27 06:50:03;;;;;;;17.48;11.25;;;14.90;99.90;;;;;;5010669;28;20042;-68
2023/07/27 06:52:29;;;;;;;17.02;10.90;;;15.00;99.90;;;;;;5011433;28;20034;-69
2023/07/27 06:54:55;;;;;;;17.17;10.95;;;15.00;99.90;;;;;;5010388;28;20053;-69
2023/07/27 06:57:24;;;;;;;15.35;10.38;;;15.00;99.90;;;;;;5010758;28;20041;-69
2023/07/27 06:59:49;;;;;;;16.77;10.27;;;15.10;99.90;;;;;;5011614;28;20511;-68
2023/07/27 07:02:15;;;;;;;17.13;10.82;;;15.00;99.90;;;;;;5017749;28;20117;-69
2023/07/27 07:04:41;;;;;;;17.52;10.32;;;15.00;99.90;;;;;;5014239;28;20392;-69
2023/07/27 07:07:07;;;;;;;14.40;10.77;;;15.10;99.90;;;;;;5018775;28;20052;-69
2023/07/27 07:09:35;;;;;;;18.08;11.73;;;15.10;99.90;;;;;;5006265;28;20038;-69
2023/07/27 07:12:02;;;;;;;17.27;12.70;;;15.10;99.90;;;;;;5010676;28;20496;-69
2023/07/27 07:14:28;;;;;;;17.95;12.48;;;15.10;99.90;;;;;;5013156;28;20482;-69
2023/07/27 07:16:53;;;;;;;16.33;11.35;;;15.20;99.90;;;;;;5016663;28;20050;-70
2023/07/27 07:19:19;;;;;;;17.13;11.48;;;15.10;99.90;;;;;;5010662;28;20037;-69
2023/07/27 07:21:44;;;;;;;16.20;11.00;;;15.10;99.90;;;;;;5014821;28;20061;-70
2023/07/27 07:24:10;;;;;;;15.50;10.52;;;15.20;99.90;;;;;;5016011;28;20456;-69
2023/07/27 07:26:36;;;;;;;16.50;10.98;;;15.10;99.90;;;;;;5019990;28;20057;-69
2023/07/27 07:29:01;;;;;;;16.45;11.15;;;15.20;99.90;;;;;;5013009;28;20045;-69
2023/07/27 07:31:27;;;;;;;16.17;11.20;;;15.20;99.90;;;;;;5007306;28;20037;-69
2023/07/27 07:33:53;;;;;;;14.18;10.55;;;15.20;99.90;;;;;;5013391;28;20037;-69
2023/07/27 07:36:18;;;;;;;16.25;10.63;;;15.20;99.90;;;;;;5022324;28;20029;-69
2023/07/27 07:38:44;;;;;;;14.82;10.30;;;15.20;99.90;;;;;;5010524;28;20050;-69
2023/07/27 07:41:10;;;;;;;15.55;10.80;;;15.20;99.90;;;;;;5021925;28;20107;-69
2023/07/27 07:43:35;;;;;;;14.02;9.75;;;15.20;99.90;;;;;;5012444;28;20133;-69
2023/07/27 07:46:01;;;;;;;12.63;9.55;;;15.30;99.90;;;;;;5015464;28;20046;-69
2023/07/27 07:48:27;;;;;;;12.02;9.93;;;15.20;99.90;;;;;;5022119;28;20037;-70
2023/07/27 07:50:53;;;;;;;14.15;9.93;;;15.20;99.90;;;;;;5013119;28;20041;-70
2023/07/27 07:53:19;;;;;;;13.80;9.88;;;15.20;99.90;;;;;;5012770;28;20034;-70
2023/07/27 07:55:45;;;;;;;13.48;9.48;;;15.20;99.90;;;;;;5003281;28;20038;-69
2023/07/27 07:58:10;;;;;;;13.00;9.90;;;15.30;99.90;;;;;;5013201;28;20117;-68
2023/07/27 08:00:36;;;;;;;14.00;10.57;;;15.20;99.90;;;;;;5012817;28;20129;-68
2023/07/27 08:03:02;;;;;;;12.85;9.50;;;15.30;99.90;;;;;;5011720;28;20057;-68
2023/07/27 08:05:27;;;;;;;13.63;10.45;;;15.30;99.90;;;;;;5009812;28;20095;-67
2023/07/27 08:07:53;;;;;;;13.63;10.68;;;15.20;99.90;;;;;;5005651;28;20038;-68
2023/07/27 08:10:19;;;;;;;13.05;10.30;;;15.20;99.90;;;;;;5014187;28;20164;-68
2023/07/27 08:12:45;;;;;;;11.35;9.63;;;15.20;99.90;;;;;;5009900;28;20041;-67
2023/07/27 08:15:11;;;;;;;12.77;10.00;;;15.30;99.90;;;;;;5020869;28;20084;-67
2023/07/27 08:17:36;;;;;;;12.70;9.93;;;15.30;99.90;;;;;;5013277;28;20038;-67
2023/07/27 08:20:03;;;;;;;11.00;9.73;;;15.30;99.90;;;;;;5010369;28;20037;-68
2023/07/27 08:22:29;;;;;;;11.88;9.05;;;15.30;99.90;;;;;;5012750;28;20448;-67
2023/07/27 08:24:54;;;;;;;11.13;9.95;;;15.30;99.90;;;;;;5013146;28;20081;-68
2023/07/27 08:27:20;;;;;;;11.40;10.20;;;15.40;99.90;;;;;;5013931;28;20042;-68
2023/07/27 08:29:46;;;;;;;11.65;10.18;;;15.40;99.90;;;;;;5010814;28;20040;-67
2023/07/27 08:32:11;;;;;;;14.02;10.50;;;15.40;99.90;;;;;;5021117;28;20124;-68
2023/07/27 08:34:37;;;;;;;12.27;10.23;;;15.40;99.90;;;;;;5019667;28;20088;-68
2023/07/27 08:37:03;;;;;;;12.48;9.88;;;15.40;99.90;;;;;;5028831;28;20122;-69
2023/07/27 08:39:28;;;;;;;12.20;10.02;;;15.50;99.90;;;;;;5012126;28;20034;-68
2023/07/27 08:41:55;;;;;;;9.93;8.88;;;15.40;99.90;;;;;;5010178;28;20078;-68
2023/07/27 08:44:21;;;;;;;11.50;9.23;;;15.50;99.90;;;;;;5014827;28;20037;-68
2023/07/27 08:46:49;;;;;;;10.35;9.27;;;15.50;99.90;;;;;;5019617;28;20125;-68
2023/07/27 08:49:15;;;;;;;10.70;8.45;;;15.60;99.90;;;;;;5014635;28;20407;-68
2023/07/27 08:51:45;;;;;;;10.80;8.98;;;15.60;99.90;;;;;;5031818;28;20038;-68
2023/07/27 08:54:11;;;;;;;10.63;8.95;;;15.60;99.90;;;;;;5016675;28;20435;-68
2023/07/27 08:56:37;;;;;;;9.68;8.60;;;15.60;99.90;;;;;;5027730;28;20091;-68
2023/07/27 08:59:03;;;;;;;10.43;9.05;;;15.60;99.90;;;;;;5027739;28;20033;-68
2023/07/27 09:01:28;;;;;;;10.38;8.60;;;15.60;99.90;;;;;;5010849;28;20467;-68
2023/07/27 09:03:54;;;;;;;8.95;8.02;;;15.70;99.90;;;;;;5009209;28;20040;-68
2023/07/27 09:06:39;;;;;;;9.38;8.38;;;15.70;99.90;;;;;;5014584;28;20050;-68
2023/07/27 09:09:14;;;;;;;8.70;6.80;;;15.80;99.90;;;;;;5009744;28;20084;-69
2023/07/27 09:11:42;;;;;;;8.18;7.22;;;15.80;99.90;;;;;;5012460;28;20078;-68
2023/07/27 09:14:07;;;;;;;9.75;7.38;;;15.80;99.90;;;;;;5019827;28;20415;-68
2023/07/27 09:16:34;;;;;;;8.45;7.53;;;15.80;99.90;;;;;;5022174;28;20048;-68
2023/07/27 09:19:01;;;;;;;7.80;6.97;;;15.80;99.90;;;;;;5008565;28;20051;-68
2023/07/27 09:21:27;;;;;;;7.65;6.85;;;15.90;99.90;;;;;;5003373;28;20077;-68
2023/07/27 09:23:56;;;;;;;7.63;6.93;;;15.90;99.90;;;;;;5008199;28;20112;-68
2023/07/27 09:26:25;;;;;;;7.32;6.60;;;15.90;99.90;;;;;;5015135;28;20038;-68
2023/07/27 09:28:53;;;;;;;7.10;6.40;;;15.90;99.90;;;;;;5010500;28;20041;-68
2023/07/27 09:31:18;;;;;;;7.20;6.50;;;16.00;99.90;;;;;;5010744;28;20034;-68
2023/07/27 09:33:44;;;;;;;6.85;6.10;;;16.00;99.90;;;;;;5011274;28;20129;-68
2023/07/27 09:36:10;;;;;;;7.22;6.38;;;16.00;99.90;;;;;;5011013;28;20037;-67
2023/07/27 09:38:36;;;;;;;5.60;5.10;;;16.00;99.90;;;;;;5011327;28;20052;-69
2023/07/27 09:41:08;;;;;;;6.22;5.70;;;16.10;99.90;;;;;;5012623;28;20038;-69
2023/07/27 09:43:40;;;;;;;6.15;5.55;;;16.10;99.90;;;;;;5009011;28;20065;-69
2023/07/27 09:46:06;;;;;;;6.45;5.75;;;16.20;99.90;;;;;;5013090;28;20041;-69
2023/07/27 09:48:32;;;;;;;6.05;5.45;;;16.20;99.90;;;;;;5010985;28;20452;-69
2023/07/27 09:51:01;;;;;;;6.18;5.43;;;16.30;99.90;;;;;;5011875;28;20040;-69
2023/07/27 09:53:32;;;;;;;6.05;5.45;;;16.30;99.90;;;;;;5009844;28;20129;-69
2023/07/27 09:55:58;;;;;;;5.70;5.10;;;16.40;99.90;;;;;;5022519;28;20124;-68
2023/07/27 09:58:25;;;;;;;6.95;5.25;;;16.40;99.90;;;;;;5012372;28;20046;-69
2023/07/27 10:00:50;;;;;;;6.35;5.70;;;16.50;99.90;;;;;;5011075;28;20514;-69
2023/07/27 10:03:16;;;;;;;5.50;5.00;;;16.50;99.90;;;;;;5007444;28;20042;-69
2023/07/27 10:05:42;;;;;;;5.47;4.97;;;16.60;99.90;;;;;;5016882;28;20108;-69
2023/07/27 10:08:08;;;;;;;5.47;4.97;;;16.70;99.90;;;;;;5011239;28;20042;-68
2023/07/27 10:10:42;;;;;;;4.93;4.43;;;16.70;99.90;;;;;;5010425;28;20034;-69
2023/07/27 10:13:23;;;;;;;5.55;4.90;;;16.70;99.90;;;;;;5005061;28;20034;-69
2023/07/27 10:15:49;;;;;;;;;;;16.70;99.90;;;;;;5016584;28;20121;-69
2023/07/27 10:18:14;;;;;;;5.00;4.60;;;16.70;99.90;;;;;;5010069;28;20027;-69
2023/07/27 10:20:40;;;;;;;5.63;4.60;;;16.70;99.90;;;;;;5018765;28;20040;-69
2023/07/27 10:23:09;;;;;;;5.55;4.50;;;16.80;99.90;;;;;;5017166;28;20040;-69
2023/07/27 10:25:56;;;;;;;6.03;4.90;;;16.80;99.90;;;;;;5023198;28;20037;-69
2023/07/27 10:28:49;;;;;;;5.20;4.70;;;16.90;99.90;;;;;;5017230;28;20048;-69
2023/07/27 10:31:23;;;;;;;5.28;4.78;;;16.90;99.90;;;;;;5003946;28;20046;-69
2023/07/27 10:34:13;;;;;;;6.00;5.30;;;16.90;99.90;;;;;;5018242;28;20038;-69
2023/07/27 10:36:58;;;;;;;5.82;5.10;;;17.00;99.90;;;;;;5008315;28;20522;-70
2023/07/27 10:39:28;;;;;;;6.55;5.18;;;17.00;99.90;;;;;;5010092;28;20057;-69
2023/07/27 10:42:02;;;;;;;5.63;5.05;;;17.00;99.90;;;;;;5010857;28;20045;-69
2023/07/27 10:44:37;;;;;;;5.47;4.97;;;17.10;99.90;;;;;;5017103;28;20041;-70
2023/07/27 10:47:13;;;;;;;5.00;4.50;;;17.10;99.90;;;;;;5033131;28;20045;-70
2023/07/27 10:49:50;;;;;;;5.63;3.97;;;17.10;99.90;;;;;;5018029;28;20096;-70
2023/07/27 10:52:21;;;;;;;4.32;3.92;;;17.20;99.90;;;;;;5008184;28;20042;-69
2023/07/27 10:54:48;;;;;;;4.18;3.78;;;17.20;99.90;;;;;;5022101;28;20045;-69
2023/07/27 10:57:15;;;;;;;5.22;4.03;;;17.10;99.90;;;;;;5014979;28;20041;-69
2023/07/27 10:59:46;;;;;;;4.38;3.83;;;17.10;99.90;;;;;;5012086;28;20045;-69
2023/07/27 11:02:23;;;;;;;6.00;4.13;;;17.10;99.90;;;;;;5012187;28;20084;-69
2023/07/27 11:04:51;;;;;;;4.32;3.42;;;17.10;99.90;;;;;;4993981;28;20125;-69
2023/07/27 11:07:36;;;;;;;5.07;4.43;;;17.10;99.90;;;;;;5015334;28;20037;-70
2023/07/27 11:10:08;;;;;;;4.15;3.75;;;17.20;99.90;;;;;;5011144;28;20034;-70
2023/07/27 11:12:54;;;;;;;4.70;4.20;;;17.20;99.90;;;;;;5019608;28;20041;-71
2023/07/27 11:15:22;;;;;;;4.55;3.97;;;17.20;99.90;;;;;;5013369;28;20108;-71
2023/07/27 11:17:49;;;;;;;4.63;4.00;;;17.30;99.90;;;;;;5009102;28;20048;-70
2023/07/27 11:20:18;;;;;;;4.88;4.40;;;17.20;99.90;;;;;;5001968;28;20042;-71
2023/07/27 11:22:45;;;;;;;4.93;4.18;;;17.30;99.90;;;;;;5000907;28;20061;-71
2023/07/27 11:25:12;;;;;;;6.85;4.18;;;17.40;99.90;;;;;;5010386;28;20037;-70
2023/07/27 11:27:38;;;;;;;5.00;4.45;;;17.40;99.90;;;;;;5010606;28;20412;-70
2023/07/27 11:30:08;;;;;;;5.82;4.10;;;17.50;99.90;;;;;;5011520;28;20034;-69
2023/07/27 11:32:34;;;;;;;4.13;3.70;;;17.50;99.90;;;;;;5030983;22;20053;-67
2023/07/27 11:34:59;;;;;;;4.60;4.10;;;17.60;99.90;;;;;;5021374;28;20061;-66
2023/07/27 11:37:34;;;;;;;5.03;4.22;;;17.60;99.90;;;;;;5012969;28;20087;-67
2023/07/27 11:40:00;;;;;;;6.00;4.22;;;17.70;99.90;;;;;;5016040;28;20042;-66
2023/07/27 11:42:27;;;;;;;4.97;3.97;;;17.70;99.90;;;;;;5011477;28;20046;-66
2023/07/27 11:44:53;;;;;;;4.90;3.70;;;17.80;99.90;;;;;;5013759;28;20444;-66
2023/07/27 11:47:19;;;;;;;4.45;3.50;;;17.90;99.90;;;;;;5009984;28;21224;-66
2023/07/27 11:49:44;;;;;;;4.13;3.00;;;17.90;99.90;;;;;;5005905;28;20068;-66
2023/07/27 11:52:10;;;;;;;3.78;3.38;;;18.00;99.90;;;;;;5009350;28;20037;-64
2023/07/27 11:54:40;;;;;;;3.90;3.58;;;18.00;99.90;;;;;;5013907;28;20073;-63
2023/07/27 11:57:05;;;;;;;3.88;3.47;;;18.00;99.90;;;;;;5018167;28;20038;-64
2023/07/27 11:59:31;;;;;;;5.28;3.97;;;18.10;99.90;;;;;;5003416;28;20615;-63
2023/07/27 12:01:58;;;;;;;4.30;3.90;;;18.10;99.90;;;;;;5013228;28;20125;-65
2023/07/27 12:04:26;;;;;;;4.38;3.97;;;18.20;99.90;;;;;;5011933;28;20408;-65
2023/07/27 12:06:54;;;;;;;4.07;3.67;;;18.20;99.90;;;;;;5016217;28;20045;-65
2023/07/27 12:09:20;;;;;;;4.55;4.13;;;18.20;99.90;;;;;;5005922;28;20618;-65
2023/07/27 12:11:46;;;;;;;4.60;4.20;;;18.20;99.90;;;;;;5014110;28;20062;-64
2023/07/27 12:14:12;;;;;;;3.60;3.30;;;18.30;99.90;;;;;;5013938;28;20124;-64
2023/07/27 12:16:43;;;;;;;4.70;4.18;;;18.30;99.90;;;;;;5011847;28;20034;-64
2023/07/27 12:19:09;;;;;;;;;;;18.40;99.90;;;;;;5004654;28;20046;-64
2023/07/27 12:21:35;;;;;;;4.38;3.97;;;18.40;99.90;;;;;;4997334;28;19972;-64
2023/07/27 12:24:02;;;;;;;4.30;3.90;;;18.30;99.90;;;;;;5012847;28;20499;-64
2023/07/27 12:26:28;;;;;;;5.03;4.53;;;18.30;99.90;;;;;;5013522;28;20081;-64
2023/07/27 12:28:54;;;;;;;4.95;4.45;;;18.40;99.90;;;;;;5011085;28;20121;-64
2023/07/27 12:31:20;;;;;;;4.30;3.90;;;18.40;99.90;;;;;;5006231;28;20560;-64
2023/07/27 12:33:45;;;;;;;4.70;4.20;;;18.40;99.90;;;;;;5013590;28;20523;-64
2023/07/27 12:36:11;;;;;;;4.40;4.00;;;18.40;99.90;;;;;;5013151;28;20030;-64
2023/07/27 12:38:37;;;;;;;4.60;4.00;;;18.50;99.90;;;;;;5012194;28;20046;-64
2023/07/27 12:41:02;;;;;;;4.10;3.65;;;18.50;99.90;;;;;;5003282;28;20410;-64
2023/07/27 12:43:28;;;;;;;4.10;3.55;;;18.50;99.90;;;;;;5010426;28;20046;-64